Aérodrome :
LOGIN :

S'inscrire | Disclaimer

   EN    FR    IT 

 










Légende :    VFR   VFR Marginal   IFR   IFR Intensif   IFR Très Intensif
Visi : 
Plafond : 
>= 8 km
>= 3000ft
5 à 8 km
1000 à 3000 ft
1500m à 5 km
500 à 1000 ft
800 à 1500m
200 à 500 ft
< 800m
< 200 ft
Symboles :   Orages  Brouillard  Fortes neiges  Fortes précipitations  Vent > 20 kt
SIGMETs :   Divers  Orages  Givrage  Turbulence  Onde Orograph.  Cendres Volcan.






- Altitude de l'aérodrome : 202 ft
- Code IATA : LGW


EGKK - London Gatwick

DERNIER METAR :
  • 291850Z 24007KT 9999 BKN018 08/06 Q1023

METARs EXPIRÉS :
  • 291820Z 22008KT 9999 SCT012 BKN024 08/06 Q1023
  • 291750Z 22008KT 9999 SCT014 BKN024 08/06 Q1023
  • 291720Z 22006KT 9999 SCT009 BKN018 08/06 Q1023
  • 291650Z 23006KT 9999 -RADZ SCT013 BKN022 08/06 Q1024
  • 291620Z 23006KT 9999 FEW015 BKN024 08/07 Q1024

TAF TAF EGKK
Valide du 29 à 18h jusqu'au 31 à 00h UTC


291656Z 2918/3024 24006KT 9999 FEW010 SCT020
TEMPO 2922/3007 BKN008
PROB40
TEMPO 3000/3006 6000 -RADZ
BECMG 3006/3009 30010KT
BECMG 3018/3021 24005KT



MET'MAP, la Météo Aéronautique d'un coup d'oeil ! - Copyright ORBIFLY Décembre 2007 - Disclaimer

ORBIFLY MET'MAP TEAM :

Programmation & Développement : Alexandra Zaïnal
Sur une idée originale de : Baudouin d'Aumeries
Soutien technique & logistique : Manuel Goepfert
Assistance : Marc-Olivier Méhu




SOURCES & CREDITS :

   NOAA